sensor_id;sensor_type;location;lat;lon;timestamp;P1;durP1;ratioP1;P2;durP2;ratioP2
16845;SDS011;8539;53.188;8.696;2023-05-07T00:00:54;24.67;;;16.50;;
16845;SDS011;8539;53.188;8.696;2023-05-07T00:03:23;21.48;;;15.43;;
16845;SDS011;8539;53.188;8.696;2023-05-07T00:05:50;22.08;;;16.48;;
16845;SDS011;8539;53.188;8.696;2023-05-07T00:08:18;19.02;;;14.98;;
16845;SDS011;8539;53.188;8.696;2023-05-07T00:10:45;20.08;;;15.02;;
16845;SDS011;8539;53.188;8.696;2023-05-07T00:13:12;23.90;;;16.70;;
16845;SDS011;8539;53.188;8.696;2023-05-07T00:15:38;21.50;;;16.48;;
16845;SDS011;8539;53.188;8.696;2023-05-07T00:18:04;20.73;;;16.27;;
16845;SDS011;8539;53.188;8.696;2023-05-07T00:20:30;24.67;;;15.55;;
16845;SDS011;8539;53.188;8.696;2023-05-07T00:22:56;25.83;;;16.35;;
16845;SDS011;8539;53.188;8.696;2023-05-07T00:25:22;24.33;;;17.45;;
16845;SDS011;8539;53.188;8.696;2023-05-07T00:27:48;24.25;;;17.60;;
16845;SDS011;8539;53.188;8.696;2023-05-07T00:30:14;28.42;;;20.55;;
16845;SDS011;8539;53.188;8.696;2023-05-07T00:32:41;24.83;;;16.52;;
16845;SDS011;8539;53.188;8.696;2023-05-07T00:35:07;23.15;;;17.35;;
16845;SDS011;8539;53.188;8.696;2023-05-07T00:37:34;25.50;;;17.35;;
16845;SDS011;8539;53.188;8.696;2023-05-07T00:40:00;23.67;;;17.67;;
16845;SDS011;8539;53.188;8.696;2023-05-07T00:42:28;21.48;;;16.52;;
16845;SDS011;8539;53.188;8.696;2023-05-07T00:44:54;26.98;;;18.20;;
16845;SDS011;8539;53.188;8.696;2023-05-07T00:47:21;24.75;;;18.73;;
16845;SDS011;8539;53.188;8.696;2023-05-07T00:49:47;22.02;;;15.57;;
16845;SDS011;8539;53.188;8.696;2023-05-07T00:52:14;24.42;;;17.13;;
16845;SDS011;8539;53.188;8.696;2023-05-07T00:54:42;23.13;;;16.95;;
16845;SDS011;8539;53.188;8.696;2023-05-07T00:57:10;23.10;;;17.45;;
16845;SDS011;8539;53.188;8.696;2023-05-07T00:59:36;22.55;;;17.85;;
16845;SDS011;8539;53.188;8.696;2023-05-07T01:02:03;22.50;;;16.98;;
16845;SDS011;8539;53.188;8.696;2023-05-07T01:04:29;29.83;;;18.05;;
16845;SDS011;8539;53.188;8.696;2023-05-07T01:06:56;23.23;;;17.33;;
16845;SDS011;8539;53.188;8.696;2023-05-07T01:09:24;27.08;;;18.90;;
16845;SDS011;8539;53.188;8.696;2023-05-07T01:11:51;24.77;;;18.88;;
16845;SDS011;8539;53.188;8.696;2023-05-07T01:14:17;25.98;;;19.00;;
16845;SDS011;8539;53.188;8.696;2023-05-07T01:16:44;23.08;;;16.98;;
16845;SDS011;8539;53.188;8.696;2023-05-07T01:19:15;23.60;;;17.63;;
16845;SDS011;8539;53.188;8.696;2023-05-07T01:21:48;21.05;;;16.85;;
16845;SDS011;8539;53.188;8.696;2023-05-07T01:24:21;25.15;;;19.33;;
16845;SDS011;8539;53.188;8.696;2023-05-07T01:26:52;27.00;;;18.77;;
16845;SDS011;8539;53.188;8.696;2023-05-07T01:29:23;26.75;;;20.38;;
16845;SDS011;8539;53.188;8.696;2023-05-07T01:31:55;26.27;;;18.38;;
16845;SDS011;8539;53.188;8.696;2023-05-07T01:34:30;25.30;;;17.95;;
16845;SDS011;8539;53.188;8.696;2023-05-07T01:37:03;28.38;;;18.90;;
16845;SDS011;8539;53.188;8.696;2023-05-07T01:39:35;23.42;;;17.60;;
16845;SDS011;8539;53.188;8.696;2023-05-07T01:42:09;24.98;;;17.60;;
16845;SDS011;8539;53.188;8.696;2023-05-07T01:44:40;22.35;;;17.17;;
16845;SDS011;8539;53.188;8.696;2023-05-07T01:47:11;26.02;;;18.92;;
16845;SDS011;8539;53.188;8.696;2023-05-07T01:49:44;24.27;;;17.05;;
16845;SDS011;8539;53.188;8.696;2023-05-07T01:52:15;23.80;;;17.38;;
16845;SDS011;8539;53.188;8.696;2023-05-07T01:54:46;21.95;;;16.80;;
16845;SDS011;8539;53.188;8.696;2023-05-07T01:57:17;22.40;;;16.23;;
16845;SDS011;8539;53.188;8.696;2023-05-07T01:59:47;23.20;;;18.15;;
16845;SDS011;8539;53.188;8.696;2023-05-07T02:02:18;19.38;;;14.63;;
16845;SDS011;8539;53.188;8.696;2023-05-07T02:04:50;20.33;;;15.35;;
16845;SDS011;8539;53.188;8.696;2023-05-07T02:07:21;20.75;;;16.20;;
16845;SDS011;8539;53.188;8.696;2023-05-07T02:09:51;22.33;;;16.00;;
16845;SDS011;8539;53.188;8.696;2023-05-07T02:12:22;22.23;;;16.23;;
16845;SDS011;8539;53.188;8.696;2023-05-07T02:14:53;23.90;;;16.55;;
16845;SDS011;8539;53.188;8.696;2023-05-07T02:17:24;20.90;;;15.70;;
16845;SDS011;8539;53.188;8.696;2023-05-07T02:19:56;20.30;;;15.15;;
16845;SDS011;8539;53.188;8.696;2023-05-07T02:22:27;20.10;;;14.68;;
16845;SDS011;8539;53.188;8.696;2023-05-07T02:24:57;24.75;;;17.02;;
16845;SDS011;8539;53.188;8.696;2023-05-07T02:27:28;21.92;;;15.68;;
16845;SDS011;8539;53.188;8.696;2023-05-07T02:29:59;25.08;;;17.10;;
16845;SDS011;8539;53.188;8.696;2023-05-07T02:32:30;23.13;;;16.48;;
16845;SDS011;8539;53.188;8.696;2023-05-07T02:35:01;21.10;;;14.40;;
16845;SDS011;8539;53.188;8.696;2023-05-07T02:37:32;25.55;;;17.08;;
16845;SDS011;8539;53.188;8.696;2023-05-07T02:40:03;21.83;;;15.38;;
16845;SDS011;8539;53.188;8.696;2023-05-07T02:42:35;24.73;;;16.65;;
16845;SDS011;8539;53.188;8.696;2023-05-07T02:45:06;22.15;;;16.30;;
16845;SDS011;8539;53.188;8.696;2023-05-07T02:47:37;22.00;;;16.10;;
16845;SDS011;8539;53.188;8.696;2023-05-07T02:50:08;24.45;;;15.25;;
16845;SDS011;8539;53.188;8.696;2023-05-07T02:52:39;25.70;;;15.45;;
16845;SDS011;8539;53.188;8.696;2023-05-07T02:55:10;21.40;;;15.18;;
16845;SDS011;8539;53.188;8.696;2023-05-07T02:57:42;25.45;;;15.20;;
16845;SDS011;8539;53.188;8.696;2023-05-07T03:00:13;23.95;;;16.02;;
16845;SDS011;8539;53.188;8.696;2023-05-07T03:02:46;23.02;;;15.50;;
16845;SDS011;8539;53.188;8.696;2023-05-07T03:05:17;22.92;;;16.35;;
16845;SDS011;8539;53.188;8.696;2023-05-07T03:07:48;23.85;;;15.73;;
16845;SDS011;8539;53.188;8.696;2023-05-07T03:10:19;23.65;;;16.30;;
16845;SDS011;8539;53.188;8.696;2023-05-07T03:12:50;24.63;;;15.68;;
16845;SDS011;8539;53.188;8.696;2023-05-07T03:15:21;22.60;;;16.02;;
16845;SDS011;8539;53.188;8.696;2023-05-07T03:17:52;31.13;;;18.85;;
16845;SDS011;8539;53.188;8.696;2023-05-07T03:20:23;24.52;;;15.60;;
16845;SDS011;8539;53.188;8.696;2023-05-07T03:22:54;24.38;;;17.27;;
16845;SDS011;8539;53.188;8.696;2023-05-07T03:25:25;28.75;;;18.75;;
16845;SDS011;8539;53.188;8.696;2023-05-07T03:27:56;21.95;;;14.63;;
16845;SDS011;8539;53.188;8.696;2023-05-07T03:30:27;21.52;;;15.15;;
16845;SDS011;8539;53.188;8.696;2023-05-07T03:32:58;27.90;;;16.42;;
16845;SDS011;8539;53.188;8.696;2023-05-07T03:35:25;24.50;;;16.63;;
16845;SDS011;8539;53.188;8.696;2023-05-07T03:37:52;23.77;;;16.75;;
16845;SDS011;8539;53.188;8.696;2023-05-07T03:40:20;23.35;;;16.38;;
16845;SDS011;8539;53.188;8.696;2023-05-07T03:42:47;27.20;;;16.65;;
16845;SDS011;8539;53.188;8.696;2023-05-07T03:45:14;25.15;;;16.60;;
16845;SDS011;8539;53.188;8.696;2023-05-07T03:47:42;25.05;;;15.90;;
16845;SDS011;8539;53.188;8.696;2023-05-07T03:50:09;22.35;;;17.13;;
16845;SDS011;8539;53.188;8.696;2023-05-07T03:52:37;22.70;;;15.82;;
16845;SDS011;8539;53.188;8.696;2023-05-07T03:55:04;21.88;;;16.27;;
16845;SDS011;8539;53.188;8.696;2023-05-07T03:57:32;24.17;;;15.48;;
16845;SDS011;8539;53.188;8.696;2023-05-07T03:59:59;24.50;;;16.10;;
16845;SDS011;8539;53.188;8.696;2023-05-07T04:02:30;23.17;;;14.73;;
16845;SDS011;8539;53.188;8.696;2023-05-07T04:05:01;22.48;;;15.27;;
16845;SDS011;8539;53.188;8.696;2023-05-07T04:07:32;26.40;;;14.93;;
16845;SDS011;8539;53.188;8.696;2023-05-07T04:10:02;22.60;;;16.05;;
16845;SDS011;8539;53.188;8.696;2023-05-07T04:12:34;26.02;;;16.77;;
16845;SDS011;8539;53.188;8.696;2023-05-07T04:15:05;20.15;;;15.52;;
16845;SDS011;8539;53.188;8.696;2023-05-07T04:17:36;20.38;;;15.00;;
16845;SDS011;8539;53.188;8.696;2023-05-07T04:20:10;25.83;;;16.58;;
16845;SDS011;8539;53.188;8.696;2023-05-07T04:22:44;27.83;;;16.88;;
16845;SDS011;8539;53.188;8.696;2023-05-07T04:25:15;26.20;;;17.17;;
16845;SDS011;8539;53.188;8.696;2023-05-07T04:27:46;20.10;;;14.18;;
16845;SDS011;8539;53.188;8.696;2023-05-07T04:30:14;21.15;;;14.05;;
16845;SDS011;8539;53.188;8.696;2023-05-07T04:32:40;19.98;;;14.10;;
16845;SDS011;8539;53.188;8.696;2023-05-07T04:35:06;25.85;;;16.58;;
16845;SDS011;8539;53.188;8.696;2023-05-07T04:37:34;21.60;;;15.75;;
16845;SDS011;8539;53.188;8.696;2023-05-07T04:40:00;20.98;;;14.25;;
16845;SDS011;8539;53.188;8.696;2023-05-07T04:42:28;16.15;;;14.32;;
16845;SDS011;8539;53.188;8.696;2023-05-07T04:44:54;18.00;;;13.68;;
16845;SDS011;8539;53.188;8.696;2023-05-07T04:47:22;22.02;;;13.38;;
16845;SDS011;8539;53.188;8.696;2023-05-07T04:49:49;17.63;;;12.88;;
16845;SDS011;8539;53.188;8.696;2023-05-07T04:52:15;18.15;;;13.63;;
16845;SDS011;8539;53.188;8.696;2023-05-07T04:54:42;18.42;;;13.70;;
16845;SDS011;8539;53.188;8.696;2023-05-07T04:57:08;18.40;;;13.85;;
16845;SDS011;8539;53.188;8.696;2023-05-07T04:59:34;22.30;;;13.50;;
16845;SDS011;8539;53.188;8.696;2023-05-07T05:02:00;19.48;;;12.73;;
16845;SDS011;8539;53.188;8.696;2023-05-07T05:04:30;18.30;;;13.07;;
16845;SDS011;8539;53.188;8.696;2023-05-07T05:06:56;19.58;;;13.18;;
16845;SDS011;8539;53.188;8.696;2023-05-07T05:09:23;18.05;;;12.57;;
16845;SDS011;8539;53.188;8.696;2023-05-07T05:11:49;16.92;;;12.32;;
16845;SDS011;8539;53.188;8.696;2023-05-07T05:14:15;14.70;;;12.05;;
16845;SDS011;8539;53.188;8.696;2023-05-07T05:16:41;16.35;;;11.80;;
16845;SDS011;8539;53.188;8.696;2023-05-07T05:19:07;13.57;;;11.48;;
16845;SDS011;8539;53.188;8.696;2023-05-07T05:21:33;18.23;;;12.75;;
16845;SDS011;8539;53.188;8.696;2023-05-07T05:23:59;18.27;;;12.48;;
16845;SDS011;8539;53.188;8.696;2023-05-07T05:26:25;19.85;;;12.20;;
16845;SDS011;8539;53.188;8.696;2023-05-07T05:28:51;20.40;;;12.57;;
16845;SDS011;8539;53.188;8.696;2023-05-07T05:31:17;18.05;;;11.68;;
16845;SDS011;8539;53.188;8.696;2023-05-07T05:33:43;15.07;;;10.80;;
16845;SDS011;8539;53.188;8.696;2023-05-07T05:36:10;15.18;;;11.52;;
16845;SDS011;8539;53.188;8.696;2023-05-07T05:38:37;17.75;;;11.90;;
16845;SDS011;8539;53.188;8.696;2023-05-07T05:41:03;15.18;;;12.23;;
16845;SDS011;8539;53.188;8.696;2023-05-07T05:43:29;16.55;;;11.82;;
16845;SDS011;8539;53.188;8.696;2023-05-07T05:45:56;16.92;;;12.68;;
16845;SDS011;8539;53.188;8.696;2023-05-07T05:48:23;15.38;;;10.80;;
16845;SDS011;8539;53.188;8.696;2023-05-07T05:50:49;13.57;;;11.02;;
16845;SDS011;8539;53.188;8.696;2023-05-07T05:53:15;15.05;;;11.77;;
16845;SDS011;8539;53.188;8.696;2023-05-07T05:55:41;18.02;;;12.52;;
16845;SDS011;8539;53.188;8.696;2023-05-07T05:58:09;18.23;;;11.50;;
16845;SDS011;8539;53.188;8.696;2023-05-07T06:00:35;15.73;;;11.68;;
16845;SDS011;8539;53.188;8.696;2023-05-07T06:03:02;12.82;;;10.63;;
16845;SDS011;8539;53.188;8.696;2023-05-07T06:05:29;12.95;;;10.05;;
16845;SDS011;8539;53.188;8.696;2023-05-07T06:07:55;11.52;;;9.73;;
16845;SDS011;8539;53.188;8.696;2023-05-07T06:10:21;12.70;;;10.10;;
16845;SDS011;8539;53.188;8.696;2023-05-07T06:12:48;10.73;;;9.57;;
16845;SDS011;8539;53.188;8.696;2023-05-07T06:15:14;12.05;;;9.82;;
16845;SDS011;8539;53.188;8.696;2023-05-07T06:17:40;10.35;;;9.25;;
16845;SDS011;8539;53.188;8.696;2023-05-07T06:20:06;13.18;;;8.85;;
16845;SDS011;8539;53.188;8.696;2023-05-07T06:22:33;8.95;;;8.05;;
16845;SDS011;8539;53.188;8.696;2023-05-07T06:24:59;13.95;;;9.48;;
16845;SDS011;8539;53.188;8.696;2023-05-07T06:27:25;10.95;;;8.13;;
16845;SDS011;8539;53.188;8.696;2023-05-07T06:29:53;9.88;;;8.70;;
16845;SDS011;8539;53.188;8.696;2023-05-07T06:32:20;8.70;;;7.78;;
16845;SDS011;8539;53.188;8.696;2023-05-07T06:34:46;9.35;;;7.78;;
16845;SDS011;8539;53.188;8.696;2023-05-07T06:37:12;8.77;;;7.70;;
16845;SDS011;8539;53.188;8.696;2023-05-07T06:39:39;8.90;;;7.72;;
16845;SDS011;8539;53.188;8.696;2023-05-07T06:42:05;8.82;;;7.22;;
16845;SDS011;8539;53.188;8.696;2023-05-07T06:44:31;9.32;;;7.28;;
16845;SDS011;8539;53.188;8.696;2023-05-07T06:46:57;7.80;;;6.95;;
16845;SDS011;8539;53.188;8.696;2023-05-07T06:49:23;9.35;;;7.10;;
16845;SDS011;8539;53.188;8.696;2023-05-07T06:51:50;8.07;;;7.25;;
16845;SDS011;8539;53.188;8.696;2023-05-07T06:54:16;9.93;;;8.05;;
16845;SDS011;8539;53.188;8.696;2023-05-07T06:56:42;8.23;;;7.38;;
16845;SDS011;8539;53.188;8.696;2023-05-07T06:59:32;7.82;;;6.95;;
16845;SDS011;8539;53.188;8.696;2023-05-07T07:01:58;11.13;;;7.57;;
16845;SDS011;8539;53.188;8.696;2023-05-07T07:04:24;7.97;;;6.65;;
16845;SDS011;8539;53.188;8.696;2023-05-07T07:06:51;10.30;;;7.20;;
16845;SDS011;8539;53.188;8.696;2023-05-07T07:09:22;8.88;;;7.95;;
16845;SDS011;8539;53.188;8.696;2023-05-07T07:11:48;8.70;;;7.75;;
16845;SDS011;8539;53.188;8.696;2023-05-07T07:14:14;11.60;;;7.72;;
16845;SDS011;8539;53.188;8.696;2023-05-07T07:16:40;8.85;;;7.25;;
16845;SDS011;8539;53.188;8.696;2023-05-07T07:19:07;10.07;;;7.38;;
16845;SDS011;8539;53.188;8.696;2023-05-07T07:21:35;9.27;;;7.63;;
16845;SDS011;8539;53.188;8.696;2023-05-07T07:24:01;8.50;;;6.78;;
16845;SDS011;8539;53.188;8.696;2023-05-07T07:26:27;7.90;;;6.80;;
16845;SDS011;8539;53.188;8.696;2023-05-07T07:28:53;8.98;;;7.22;;
16845;SDS011;8539;53.188;8.696;2023-05-07T07:31:19;8.13;;;6.90;;
16845;SDS011;8539;53.188;8.696;2023-05-07T07:33:45;9.57;;;7.53;;
16845;SDS011;8539;53.188;8.696;2023-05-07T07:36:11;8.20;;;6.50;;
16845;SDS011;8539;53.188;8.696;2023-05-07T07:38:37;8.93;;;7.35;;
16845;SDS011;8539;53.188;8.696;2023-05-07T07:41:04;9.45;;;7.10;;
16845;SDS011;8539;53.188;8.696;2023-05-07T07:43:30;7.50;;;6.80;;
16845;SDS011;8539;53.188;8.696;2023-05-07T07:45:56;8.43;;;7.13;;
16845;SDS011;8539;53.188;8.696;2023-05-07T07:48:22;10.02;;;7.70;;
16845;SDS011;8539;53.188;8.696;2023-05-07T07:50:49;11.43;;;8.02;;
16845;SDS011;8539;53.188;8.696;2023-05-07T07:53:18;9.55;;;7.85;;
16845;SDS011;8539;53.188;8.696;2023-05-07T07:55:45;9.20;;;7.30;;
16845;SDS011;8539;53.188;8.696;2023-05-07T07:58:11;9.05;;;7.60;;
16845;SDS011;8539;53.188;8.696;2023-05-07T08:00:37;10.30;;;7.20;;
16845;SDS011;8539;53.188;8.696;2023-05-07T08:03:04;7.97;;;6.55;;
16845;SDS011;8539;53.188;8.696;2023-05-07T08:05:33;8.20;;;6.93;;
16845;SDS011;8539;53.188;8.696;2023-05-07T08:07:59;9.05;;;7.05;;
16845;SDS011;8539;53.188;8.696;2023-05-07T08:10:25;7.70;;;6.75;;
16845;SDS011;8539;53.188;8.696;2023-05-07T08:12:52;8.88;;;6.97;;
16845;SDS011;8539;53.188;8.696;2023-05-07T08:15:18;8.48;;;7.13;;
16845;SDS011;8539;53.188;8.696;2023-05-07T08:17:44;7.90;;;6.38;;
16845;SDS011;8539;53.188;8.696;2023-05-07T08:20:10;10.40;;;6.85;;
16845;SDS011;8539;53.188;8.696;2023-05-07T08:22:36;7.03;;;5.93;;
16845;SDS011;8539;53.188;8.696;2023-05-07T08:25:02;6.32;;;5.72;;
16845;SDS011;8539;53.188;8.696;2023-05-07T08:27:29;9.13;;;6.35;;
16845;SDS011;8539;53.188;8.696;2023-05-07T08:29:55;6.95;;;6.32;;
16845;SDS011;8539;53.188;8.696;2023-05-07T08:32:21;8.23;;;6.47;;
16845;SDS011;8539;53.188;8.696;2023-05-07T08:34:47;8.10;;;6.57;;
16845;SDS011;8539;53.188;8.696;2023-05-07T08:37:13;8.32;;;6.50;;
16845;SDS011;8539;53.188;8.696;2023-05-07T08:39:39;8.40;;;6.55;;
16845;SDS011;8539;53.188;8.696;2023-05-07T08:42:05;7.32;;;5.90;;
16845;SDS011;8539;53.188;8.696;2023-05-07T08:44:33;7.82;;;6.43;;
16845;SDS011;8539;53.188;8.696;2023-05-07T08:47:03;8.38;;;6.82;;
16845;SDS011;8539;53.188;8.696;2023-05-07T08:49:33;9.00;;;7.00;;
16845;SDS011;8539;53.188;8.696;2023-05-07T08:52:00;8.40;;;6.25;;
16845;SDS011;8539;53.188;8.696;2023-05-07T08:54:27;8.07;;;6.43;;
16845;SDS011;8539;53.188;8.696;2023-05-07T08:56:55;9.07;;;6.40;;
16845;SDS011;8539;53.188;8.696;2023-05-07T08:59:21;10.73;;;6.47;;
16845;SDS011;8539;53.188;8.696;2023-05-07T09:01:47;7.60;;;6.43;;
16845;SDS011;8539;53.188;8.696;2023-05-07T09:04:13;7.20;;;6.45;;
16845;SDS011;8539;53.188;8.696;2023-05-07T09:06:40;8.25;;;6.65;;
16845;SDS011;8539;53.188;8.696;2023-05-07T09:09:07;6.80;;;6.10;;
16845;SDS011;8539;53.188;8.696;2023-05-07T09:11:33;7.75;;;6.93;;
16845;SDS011;8539;53.188;8.696;2023-05-07T09:13:59;8.50;;;6.40;;
16845;SDS011;8539;53.188;8.696;2023-05-07T09:16:28;11.57;;;6.85;;
16845;SDS011;8539;53.188;8.696;2023-05-07T09:18:56;11.65;;;8.20;;
16845;SDS011;8539;53.188;8.696;2023-05-07T09:21:24;9.68;;;7.70;;
16845;SDS011;8539;53.188;8.696;2023-05-07T09:23:50;8.68;;;6.22;;
16845;SDS011;8539;53.188;8.696;2023-05-07T09:26:17;11.43;;;8.27;;
16845;SDS011;8539;53.188;8.696;2023-05-07T09:28:43;9.93;;;7.15;;
16845;SDS011;8539;53.188;8.696;2023-05-07T09:31:11;9.45;;;7.82;;
16845;SDS011;8539;53.188;8.696;2023-05-07T09:33:38;9.95;;;7.75;;
16845;SDS011;8539;53.188;8.696;2023-05-07T09:36:05;10.13;;;7.57;;
16845;SDS011;8539;53.188;8.696;2023-05-07T09:38:33;8.23;;;6.72;;
16845;SDS011;8539;53.188;8.696;2023-05-07T09:41:03;11.85;;;8.20;;
16845;SDS011;8539;53.188;8.696;2023-05-07T09:43:34;8.90;;;6.65;;
16845;SDS011;8539;53.188;8.696;2023-05-07T09:46:13;10.40;;;7.43;;
16845;SDS011;8539;53.188;8.696;2023-05-07T09:48:41;8.80;;;7.07;;
16845;SDS011;8539;53.188;8.696;2023-05-07T09:53:47;8.15;;;6.75;;
16845;SDS011;8539;53.188;8.696;2023-05-07T09:56:15;8.25;;;7.30;;
16845;SDS011;8539;53.188;8.696;2023-05-07T09:58:53;9.32;;;7.10;;
16845;SDS011;8539;53.188;8.696;2023-05-07T10:01:21;9.07;;;7.35;;
16845;SDS011;8539;53.188;8.696;2023-05-07T10:03:49;9.10;;;7.70;;
16845;SDS011;8539;53.188;8.696;2023-05-07T10:06:16;10.38;;;7.55;;
16845;SDS011;8539;53.188;8.696;2023-05-07T10:08:43;8.90;;;7.82;;
16845;SDS011;8539;53.188;8.696;2023-05-07T10:11:09;11.57;;;8.32;;
16845;SDS011;8539;53.188;8.696;2023-05-07T10:13:36;11.38;;;8.23;;
16845;SDS011;8539;53.188;8.696;2023-05-07T10:16:04;8.98;;;7.57;;
16845;SDS011;8539;53.188;8.696;2023-05-07T10:18:31;9.73;;;7.90;;
16845;SDS011;8539;53.188;8.696;2023-05-07T10:21:01;10.98;;;8.30;;
16845;SDS011;8539;53.188;8.696;2023-05-07T10:23:32;9.00;;;7.50;;
16845;SDS011;8539;53.188;8.696;2023-05-07T10:25:59;11.55;;;6.72;;
16845;SDS011;8539;53.188;8.696;2023-05-07T10:28:30;10.68;;;7.32;;
16845;SDS011;8539;53.188;8.696;2023-05-07T10:33:54;8.18;;;7.00;;
16845;SDS011;8539;53.188;8.696;2023-05-07T10:36:22;9.02;;;7.40;;
16845;SDS011;8539;53.188;8.696;2023-05-07T10:38:49;8.27;;;7.32;;
16845;SDS011;8539;53.188;8.696;2023-05-07T10:41:15;9.27;;;7.55;;
16845;SDS011;8539;53.188;8.696;2023-05-07T10:43:44;10.93;;;8.00;;
16845;SDS011;8539;53.188;8.696;2023-05-07T10:46:17;11.60;;;8.57;;
16845;SDS011;8539;53.188;8.696;2023-05-07T10:51:26;9.60;;;7.45;;
16845;SDS011;8539;53.188;8.696;2023-05-07T10:56:37;12.27;;;9.43;;
16845;SDS011;8539;53.188;8.696;2023-05-07T11:01:50;11.65;;;8.40;;
16845;SDS011;8539;53.188;8.696;2023-05-07T11:04:19;8.93;;;7.53;;
16845;SDS011;8539;53.188;8.696;2023-05-07T11:07:24;12.02;;;8.90;;
16845;SDS011;8539;53.188;8.696;2023-05-07T11:15:06;9.10;;;7.55;;
16845;SDS011;8539;53.188;8.696;2023-05-07T11:17:35;10.63;;;7.57;;
16845;SDS011;8539;53.188;8.696;2023-05-07T11:23:26;9.38;;;7.28;;
16845;SDS011;8539;53.188;8.696;2023-05-07T11:26:07;10.07;;;7.18;;
16845;SDS011;8539;53.188;8.696;2023-05-07T11:28:37;8.32;;;7.07;;
16845;SDS011;8539;53.188;8.696;2023-05-07T11:31:07;9.07;;;7.35;;
16845;SDS011;8539;53.188;8.696;2023-05-07T11:33:35;9.77;;;7.40;;
16845;SDS011;8539;53.188;8.696;2023-05-07T11:36:04;8.45;;;6.97;;
16845;SDS011;8539;53.188;8.696;2023-05-07T11:38:33;7.90;;;6.78;;
16845;SDS011;8539;53.188;8.696;2023-05-07T11:41:00;8.10;;;7.30;;
16845;SDS011;8539;53.188;8.696;2023-05-07T11:43:28;9.52;;;7.88;;
16845;SDS011;8539;53.188;8.696;2023-05-07T11:45:54;8.15;;;7.07;;
16845;SDS011;8539;53.188;8.696;2023-05-07T11:48:29;9.18;;;7.43;;
16845;SDS011;8539;53.188;8.696;2023-05-07T11:53:26;8.48;;;7.55;;
16845;SDS011;8539;53.188;8.696;2023-05-07T11:56:21;9.73;;;7.53;;
16845;SDS011;8539;53.188;8.696;2023-05-07T11:58:48;8.85;;;7.25;;
16845;SDS011;8539;53.188;8.696;2023-05-07T12:01:15;10.20;;;7.60;;
16845;SDS011;8539;53.188;8.696;2023-05-07T12:03:42;8.95;;;7.05;;
16845;SDS011;8539;53.188;8.696;2023-05-07T12:06:11;8.50;;;7.18;;
16845;SDS011;8539;53.188;8.696;2023-05-07T12:08:39;9.20;;;7.43;;
16845;SDS011;8539;53.188;8.696;2023-05-07T12:11:07;7.82;;;7.03;;
16845;SDS011;8539;53.188;8.696;2023-05-07T12:13:34;9.95;;;7.20;;
16845;SDS011;8539;53.188;8.696;2023-05-07T12:16:00;7.47;;;6.68;;
16845;SDS011;8539;53.188;8.696;2023-05-07T12:18:28;7.47;;;6.68;;
16845;SDS011;8539;53.188;8.696;2023-05-07T12:20:55;9.35;;;6.38;;
16845;SDS011;8539;53.188;8.696;2023-05-07T12:23:21;6.78;;;6.07;;
16845;SDS011;8539;53.188;8.696;2023-05-07T12:25:48;7.90;;;7.13;;
16845;SDS011;8539;53.188;8.696;2023-05-07T12:28:15;7.70;;;6.72;;
16845;SDS011;8539;53.188;8.696;2023-05-07T12:30:42;6.68;;;6.07;;
16845;SDS011;8539;53.188;8.696;2023-05-07T12:33:10;7.70;;;6.57;;
16845;SDS011;8539;53.188;8.696;2023-05-07T12:35:40;8.82;;;6.47;;
16845;SDS011;8539;53.188;8.696;2023-05-07T12:38:07;10.57;;;6.97;;
16845;SDS011;8539;53.188;8.696;2023-05-07T12:40:38;8.38;;;6.75;;
16845;SDS011;8539;53.188;8.696;2023-05-07T12:43:06;6.72;;;6.07;;
16845;SDS011;8539;53.188;8.696;2023-05-07T12:45:39;8.95;;;6.57;;
16845;SDS011;8539;53.188;8.696;2023-05-07T12:48:07;7.18;;;5.47;;
16845;SDS011;8539;53.188;8.696;2023-05-07T12:53:04;5.78;;;5.05;;
16845;SDS011;8539;53.188;8.696;2023-05-07T12:55:31;8.02;;;5.80;;
16845;SDS011;8539;53.188;8.696;2023-05-07T12:58:00;7.25;;;6.15;;
16845;SDS011;8539;53.188;8.696;2023-05-07T13:00:55;7.15;;;5.88;;
16845;SDS011;8539;53.188;8.696;2023-05-07T13:03:27;9.98;;;6.75;;
16845;SDS011;8539;53.188;8.696;2023-05-07T13:05:55;7.07;;;5.43;;
16845;SDS011;8539;53.188;8.696;2023-05-07T13:08:34;6.50;;;5.32;;
16845;SDS011;8539;53.188;8.696;2023-05-07T13:11:11;6.57;;;5.90;;
16845;SDS011;8539;53.188;8.696;2023-05-07T13:13:38;11.23;;;5.90;;
16845;SDS011;8539;53.188;8.696;2023-05-07T13:16:05;6.65;;;5.88;;
16845;SDS011;8539;53.188;8.696;2023-05-07T13:18:33;5.65;;;5.13;;
16845;SDS011;8539;53.188;8.696;2023-05-07T13:21:00;8.40;;;5.25;;
16845;SDS011;8539;53.188;8.696;2023-05-07T13:23:27;6.70;;;5.97;;
16845;SDS011;8539;53.188;8.696;2023-05-07T13:25:54;5.75;;;5.15;;
16845;SDS011;8539;53.188;8.696;2023-05-07T13:28:22;6.35;;;5.35;;
16845;SDS011;8539;53.188;8.696;2023-05-07T13:30:50;6.50;;;5.90;;
16845;SDS011;8539;53.188;8.696;2023-05-07T13:33:17;4.78;;;4.28;;
16845;SDS011;8539;53.188;8.696;2023-05-07T13:35:44;5.15;;;4.35;;
16845;SDS011;8539;53.188;8.696;2023-05-07T13:38:10;6.95;;;4.75;;
16845;SDS011;8539;53.188;8.696;2023-05-07T13:40:36;7.60;;;5.82;;
16845;SDS011;8539;53.188;8.696;2023-05-07T13:43:02;6.28;;;5.65;;
16845;SDS011;8539;53.188;8.696;2023-05-07T13:45:28;5.70;;;5.18;;
16845;SDS011;8539;53.188;8.696;2023-05-07T13:47:55;5.32;;;4.57;;
16845;SDS011;8539;53.188;8.696;2023-05-07T13:50:22;4.97;;;4.47;;
16845;SDS011;8539;53.188;8.696;2023-05-07T13:52:48;9.32;;;6.38;;
16845;SDS011;8539;53.188;8.696;2023-05-07T13:55:18;7.85;;;4.88;;
16845;SDS011;8539;53.188;8.696;2023-05-07T13:57:45;5.20;;;4.55;;
16845;SDS011;8539;53.188;8.696;2023-05-07T14:00:12;5.18;;;4.68;;
16845;SDS011;8539;53.188;8.696;2023-05-07T14:02:40;6.57;;;4.43;;
16845;SDS011;8539;53.188;8.696;2023-05-07T14:05:06;4.55;;;4.10;;
16845;SDS011;8539;53.188;8.696;2023-05-07T14:07:33;5.25;;;4.70;;
16845;SDS011;8539;53.188;8.696;2023-05-07T14:09:59;7.00;;;4.75;;
16845;SDS011;8539;53.188;8.696;2023-05-07T14:12:26;4.88;;;4.05;;
16845;SDS011;8539;53.188;8.696;2023-05-07T14:14:52;5.70;;;5.10;;
16845;SDS011;8539;53.188;8.696;2023-05-07T14:17:18;5.35;;;4.50;;
16845;SDS011;8539;53.188;8.696;2023-05-07T14:19:45;4.03;;;3.63;;
16845;SDS011;8539;53.188;8.696;2023-05-07T14:22:13;3.80;;;3.50;;
16845;SDS011;8539;53.188;8.696;2023-05-07T14:24:40;6.35;;;4.55;;
16845;SDS011;8539;53.188;8.696;2023-05-07T14:27:06;4.88;;;4.38;;
16845;SDS011;8539;53.188;8.696;2023-05-07T14:29:33;5.28;;;4.28;;
16845;SDS011;8539;53.188;8.696;2023-05-07T14:32:01;5.28;;;4.22;;
16845;SDS011;8539;53.188;8.696;2023-05-07T14:34:29;5.38;;;4.30;;
16845;SDS011;8539;53.188;8.696;2023-05-07T14:36:57;5.28;;;4.35;;
16845;SDS011;8539;53.188;8.696;2023-05-07T14:39:25;5.05;;;4.40;;
16845;SDS011;8539;53.188;8.696;2023-05-07T14:41:51;5.15;;;4.40;;
16845;SDS011;8539;53.188;8.696;2023-05-07T14:44:20;5.22;;;4.53;;
16845;SDS011;8539;53.188;8.696;2023-05-07T14:46:53;7.85;;;4.72;;
16845;SDS011;8539;53.188;8.696;2023-05-07T14:49:19;7.10;;;5.00;;
16845;SDS011;8539;53.188;8.696;2023-05-07T14:51:46;4.72;;;4.20;;
16845;SDS011;8539;53.188;8.696;2023-05-07T14:54:12;5.50;;;4.30;;
16845;SDS011;8539;53.188;8.696;2023-05-07T14:56:39;6.40;;;5.45;;
16845;SDS011;8539;53.188;8.696;2023-05-07T14:59:06;6.30;;;5.05;;
16845;SDS011;8539;53.188;8.696;2023-05-07T15:01:34;5.22;;;4.45;;
16845;SDS011;8539;53.188;8.696;2023-05-07T15:04:02;5.00;;;4.50;;
16845;SDS011;8539;53.188;8.696;2023-05-07T15:06:29;6.32;;;4.80;;
16845;SDS011;8539;53.188;8.696;2023-05-07T15:08:56;6.28;;;5.30;;
16845;SDS011;8539;53.188;8.696;2023-05-07T15:32:28;5.13;;;4.25;;
16845;SDS011;8539;53.188;8.696;2023-05-07T15:34:54;4.95;;;4.45;;
16845;SDS011;8539;53.188;8.696;2023-05-07T15:37:20;4.22;;;3.83;;
16845;SDS011;8539;53.188;8.696;2023-05-07T15:39:46;4.15;;;3.75;;
16845;SDS011;8539;53.188;8.696;2023-05-07T15:42:12;5.95;;;4.13;;